CheckWX is a tool to help pilots better visualize weather data.  It is not intended as a substitute for an official pre-flight weather briefing.

16:12:57 UTC

EGKB METAR
London Biggin Hill Airport
London, United Kingdom
Current

23 mins ago

EGKB 071550Z 21009KT 9999 FEW015 BKN030 09/06 Q1013
Observed
Dec-7 @ 15:50 UTC
Wind
  • 210° at 9 KTS
Visibility
10,000+ meters
Flight Rules
MVFR
Cloud Levels
  • Few at 1,500' AGL
  • Broken at 3,000' AGL
Temperature
C / 48°F
Dewpoint
C / 43°F
Humidity
82%
Altimeter
29.91" Hg
Pressure
1012.92 hPa
Previous

53 mins ago

EGKB 071520Z 23009KT 9999 FEW015 BKN030 09/05 Q1013
Observed
Dec-7 @ 15:20 UTC
Wind
  • 230° at 9 KTS
Visibility
10,000+ meters
Flight Rules
MVFR
Cloud Levels
  • Few at 1,500' AGL
  • Broken at 3,000' AGL
Temperature
C / 48°F
Dewpoint
C / 41°F
Humidity
76%
Altimeter
29.91" Hg
Pressure
1012.92 hPa
Previous

1 hour ago

EGKB 071450Z 21010KT 9999 BKN025 09/05 Q1013
Observed
Dec-7 @ 14:50 UTC
Wind
  • 210° at 10 KTS
Visibility
10,000+ meters
Flight Rules
MVFR
Cloud Levels
  • Broken at 2,500' AGL
Temperature
C / 48°F
Dewpoint
C / 41°F
Humidity
76%
Altimeter
29.91" Hg
Pressure
1012.92 hPa